Deer Lodge, MT

2:28 PM MDT on May 24, 2017 (GMT -0600)
| | Change Station
Active Advisory: Wind Advisory

Elev -9999 ft 0.00 °N, 0.00 °E | Updated 0 second ago

Clear
Clear
°F
Feels Like °F
N
Wind Variable Wind from North
Gusts mph

Today
High -- | Low -- °F
--% Chance of Precip.
Yesterday
High -- | Low -- °F
Precip. -- in
Pressure 29.49 in
Visibility 10.0 miles
Clouds Clear
Dew Point Not available.
Humidity Not available.
Rainfall --
Snow Depth Not available.
5:48 AM 9:08 PM
Waning Crescent, 1% visible
METAR KBTM 241953Z AUTO 27024G36KT 10SM CLR 15/M12 A2960 RMK AO2 PK WND 27036/1953 SLP985 T01501122
Pressure 29.49 in
Visibility 10.0 miles
Clouds Clear
Dew Point Not available.
Humidity Not available.
Rainfall --
Snow Depth Not available.
5:48 AM 9:08 PM
Waning Crescent, 1% visible
METAR KBTM 241953Z AUTO 27024G36KT 10SM CLR 15/M12 A2960 RMK AO2 PK WND 27036/1953 SLP985 T01501122

Get Your Daily Forecast Email!

Thanks for signing up!

Be on the lookout for a verification email in your inbox.

You'll start receiving severe weather alerts in your inbox..

×

10-Day Weather Forecast

Almanac

Astronomy

May. 24, 2017 Rise Set
Actual Time
Civil Twilight
Nautical Twilight
Astronomical Twilight
Moon
Length of Visible Light
Length of Day
Tomorrow will be .
, % of the Moon is Illuminated

Today's Extremes

State Highs State Lows

Community

WunderPhotos

Category 6

Welcome to Category 6. This is the collective home for Weather Underground's featured writeups by Dr. Jeff Masters (right), Bob Henson (left), Chris Burt, and other regular contributors.

Nearby

Air Quality

  Air Quality AQ Index Pollutant
Not available.

Snow Depth

Station Depth Elevation

Earthquake Activity

City Distance Mag. Time & Date
Minimum magnitude displayed is 2.5.

Coastal Water Temperatures

Place Temperature

Stations

Nearby Weather Stations

Station Location Temp. Windchill Dew Point Humidity Wind Precip. Elev Updated Type
                   

Watches & Warnings

Wind Advisory
Issued: 3:18 AM MDT May. 24, 2017 – National Weather Service

... Wind Advisory in effect from 9 am this morning to 9 PM MDT
this evening...

The National Weather Service in Missoula has issued a Wind
Advisory... which is in effect from 9 am this morning to 9 PM MDT
this evening. The high wind watch is no longer in effect.

* Impacts/timing: strong winds will develop by mid morning and
continue through the evening. Tree and infrastructure damage
is possible. Strong Crosswinds will create difficult driving
conditions, particularly on Interstate 90.

* Winds: southwest 25 to 40 mph... gusting to 50 mph. Gusts to 55
mph will be possible in the vicinity of Avon, Ovando and
MacDonald Pass.

* Locations impacted include: Butte, Georgetown Lake, Highway 12
Garrison to Elliston, Homestake pass, and MacDonald Pass